Anniston, AL (36207)

9:25 AM CDT on August 31, 2015 (GMT -0500)
West Anniston | | Change Station
CLOSE
Current Station
Personal Weather Station
Location: Anniston, AL
Elevation: 728 ft
Nearby Weather Stations

Elev 728 ft 33.66 °N, 85.84 °W | Updated 10 minutes ago

Overcast
Overcast
73.6 °F
Feels Like 74 °F
N
0.0
Wind Variable Wind from NW

Today
High -- | Low -- °F
--% Chance of Precip.
Yesterday
High -- | Low -- °F
Precip. -- in
6:16 AM 7:10 PM
Waning Gibbous, 95% visible
Pressure 30.11 in
Visibility 10.0 miles
Clouds Overcast 800 ft
Heat Index 74 °F
Dew Point 66 °F
Humidity 77%
Rainfall 0.00 in
Snow Depth Not available.
UV 1 out of 12
Pollen 8.40 out of 12
Air Quality Not available.
Flu Activity Not available.
METAR KANB 311353Z AUTO 08005KT 10SM OVC008 22/19 A3013 RMK AO2 SLP195 T02220194
Pressure 30.11 in
Visibility 10.0 miles
Clouds Overcast 800 ft
Heat Index 74 °F
Dew Point 66 °F
Humidity 77%
Rainfall 0.00 in
Snow Depth Not available.
UV 1 out of 12
Pollen 8.40 out of 12
Air Quality Not available.
Flu Activity Not available.
METAR KANB 311353Z AUTO 08005KT 10SM OVC008 22/19 A3013 RMK AO2 SLP195 T02220194

10-Day Weather Forecast

×

Almanac

Astronomy

Aug. 31, 2015 Rise Set
Actual Time
Civil Twilight
Nautical Twilight
Astronomical Twilight
Moon
Length of Visible Light
Length of Day
Tomorrow will be .
, % of the Moon is Illuminated

Today's Extremes

State Highs State Lows

Community

WunderPhotos

Upload Photos

1,851,248 photos uploaded!

WunderBlogs® & News

Nearby

Air Quality

  Air Quality AQ Index Pollutant
Not available.

Snow Depth

Station Depth Elevation

Earthquake Activity

City Distance Mag. Time & Date
Minimum magnitude displayed is 2.5.

Coastal Water Temperatures

Place Temperature

Stations

Nearby Weather Stations

Station Location Temp. Windchill Dew Point Humidity Wind Precip. Elev Updated Type